This is the latest recevied weather packets stored in our database for station/object IK0OZB-10. If no packets are shown the sender has not sent any weather packets the latest 10 day(s).
| Time | Temp. | Humidity | Pressure | Rain* | Wind** | Luminosity | Snow |
|---|---|---|---|---|---|---|---|
| 1777443731 | 15.56° C | 72% | 1016 hPa | - | - | - | - |
| 1777442831 | 15.56° C | 74% | 1016.1 hPa | - | - | - | - |
| 1777441931 | 15° C | 76% | 1016.1 hPa | - | - | - | - |
| 1777441031 | 14.44° C | 77% | 1016.1 hPa | - | - | - | - |
| 1777440131 | 14.44° C | 76% | 1016 hPa | - | - | - | - |
| 1777439231 | 14.44° C | 76% | 1015.9 hPa | - | - | - | - |
| 1777438331 | 13.89° C | 76% | 1015.9 hPa | - | - | - | - |
| 1777437430 | 13.89° C | 76% | 1015.7 hPa | - | - | - | - |
| 1777436530 | 13.89° C | 74% | 1015.6 hPa | - | - | - | - |
| 1777435630 | 14.44° C | 74% | 1015.5 hPa | - | - | - | - |
| 1777434730 | 13.89° C | 72% | 1015.6 hPa | - | - | - | - |
| 1777433830 | 13.89° C | 71% | 1015.6 hPa | - | - | - | - |
| 1777432930 | 13.89° C | 72% | 1015.7 hPa | - | - | - | - |
| 1777432030 | 13.89° C | 72% | 1015.6 hPa | - | - | - | - |
| 1777431130 | 14.44° C | 71% | 1015.5 hPa | - | - | - | - |
| 1777425729 | 15° C | 72% | 1015.2 hPa | - | - | - | - |
| 1777424829 | 15° C | 70% | 1015.4 hPa | - | - | - | - |
| 1777423028 | 15° C | 69% | 1015.7 hPa | - | - | - | - |
| 1777412226 | 16.67° C | 63% | 1015.7 hPa | - | - | - | - |
| 1777411326 | 16.67° C | 63% | 1015.4 hPa | - | - | - | - |
| 1777410426 | 16.67° C | 62% | 1015.2 hPa | - | - | - | - |
| 1777405025 | 18.33° C | 56% | 1015.4 hPa | - | - | - | - |
| 1777404125 | 18.33° C | 56% | 1015.4 hPa | - | - | - | - |
| 1777403225 | 18.89° C | 56% | 1015.3 hPa | - | - | - | - |
| 1777397824 | 21.67° C | 46% | 1014.8 hPa | - | - | - | - |
* Rain since midnight (hover to see other rain measurements)
** Current wind speed in m/s (hover to see current wind gust speed)